sensor_id;sensor_type;location;lat;lon;timestamp;temperature;humidity
35127;DHT22;21300;52.006;5.798;2023-04-03T00:01:06;6.10;99.90
35127;DHT22;21300;52.006;5.798;2023-04-03T00:03:32;6.00;99.90
35127;DHT22;21300;52.006;5.798;2023-04-03T00:05:58;6.10;99.90
35127;DHT22;21300;52.006;5.798;2023-04-03T00:08:23;6.10;99.90
35127;DHT22;21300;52.006;5.798;2023-04-03T00:10:49;6.00;99.90
35127;DHT22;21300;52.006;5.798;2023-04-03T00:13:15;6.00;99.90
35127;DHT22;21300;52.006;5.798;2023-04-03T00:15:41;6.00;99.90
35127;DHT22;21300;52.006;5.798;2023-04-03T00:18:07;6.00;99.90
35127;DHT22;21300;52.006;5.798;2023-04-03T00:20:33;5.90;99.90
35127;DHT22;21300;52.006;5.798;2023-04-03T00:23:00;5.90;99.90
35127;DHT22;21300;52.006;5.798;2023-04-03T00:25:25;5.90;99.90
35127;DHT22;21300;52.006;5.798;2023-04-03T00:27:51;5.90;99.90
35127;DHT22;21300;52.006;5.798;2023-04-03T00:30:19;5.90;99.90
35127;DHT22;21300;52.006;5.798;2023-04-03T00:32:46;5.90;99.90
35127;DHT22;21300;52.006;5.798;2023-04-03T00:35:12;5.80;99.90
35127;DHT22;21300;52.006;5.798;2023-04-03T00:37:41;5.80;99.90
35127;DHT22;21300;52.006;5.798;2023-04-03T00:40:07;5.80;99.90
35127;DHT22;21300;52.006;5.798;2023-04-03T00:42:33;5.80;99.90
35127;DHT22;21300;52.006;5.798;2023-04-03T00:47:26;5.80;99.90
35127;DHT22;21300;52.006;5.798;2023-04-03T00:49:52;5.80;99.90
35127;DHT22;21300;52.006;5.798;2023-04-03T00:52:22;5.80;99.90
35127;DHT22;21300;52.006;5.798;2023-04-03T00:54:50;5.80;99.90
35127;DHT22;21300;52.006;5.798;2023-04-03T00:57:17;5.70;99.90
35127;DHT22;21300;52.006;5.798;2023-04-03T00:59:48;5.70;99.90
35127;DHT22;21300;52.006;5.798;2023-04-03T01:02:16;5.70;99.90
35127;DHT22;21300;52.006;5.798;2023-04-03T01:04:43;5.70;99.90
35127;DHT22;21300;52.006;5.798;2023-04-03T01:07:12;5.70;99.90
35127;DHT22;21300;52.006;5.798;2023-04-03T01:09:39;5.70;99.90
35127;DHT22;21300;52.006;5.798;2023-04-03T01:12:16;5.70;99.90
35127;DHT22;21300;52.006;5.798;2023-04-03T01:14:44;5.70;99.90
35127;DHT22;21300;52.006;5.798;2023-04-03T01:17:48;5.70;99.90
35127;DHT22;21300;52.006;5.798;2023-04-03T01:25:39;5.60;99.90
35127;DHT22;21300;52.006;5.798;2023-04-03T01:28:07;5.60;99.90
35127;DHT22;21300;52.006;5.798;2023-04-03T01:30:36;5.60;99.90
35127;DHT22;21300;52.006;5.798;2023-04-03T01:33:05;5.60;99.90
35127;DHT22;21300;52.006;5.798;2023-04-03T01:35:30;5.60;99.90
35127;DHT22;21300;52.006;5.798;2023-04-03T01:37:56;5.60;99.90
35127;DHT22;21300;52.006;5.798;2023-04-03T01:40:21;5.60;99.90
35127;DHT22;21300;52.006;5.798;2023-04-03T01:42:47;5.50;99.90
35127;DHT22;21300;52.006;5.798;2023-04-03T01:45:12;5.50;99.90
35127;DHT22;21300;52.006;5.798;2023-04-03T01:47:38;5.50;99.90
35127;DHT22;21300;52.006;5.798;2023-04-03T01:50:04;5.50;99.90
35127;DHT22;21300;52.006;5.798;2023-04-03T01:52:29;5.50;99.90
35127;DHT22;21300;52.006;5.798;2023-04-03T01:54:55;5.40;99.90
35127;DHT22;21300;52.006;5.798;2023-04-03T01:57:21;5.50;99.90
35127;DHT22;21300;52.006;5.798;2023-04-03T01:59:46;5.40;99.90
35127;DHT22;21300;52.006;5.798;2023-04-03T02:02:12;5.40;99.90
35127;DHT22;21300;52.006;5.798;2023-04-03T02:04:40;5.40;99.90
35127;DHT22;21300;52.006;5.798;2023-04-03T02:07:05;5.40;99.90
35127;DHT22;21300;52.006;5.798;2023-04-03T02:09:31;5.30;99.90
35127;DHT22;21300;52.006;5.798;2023-04-03T02:11:57;5.40;99.90
35127;DHT22;21300;52.006;5.798;2023-04-03T02:14:22;5.30;99.90
35127;DHT22;21300;52.006;5.798;2023-04-03T02:16:49;5.30;99.90
35127;DHT22;21300;52.006;5.798;2023-04-03T02:19:15;5.30;99.90
35127;DHT22;21300;52.006;5.798;2023-04-03T02:21:41;5.30;99.90
35127;DHT22;21300;52.006;5.798;2023-04-03T02:24:06;5.20;99.90
35127;DHT22;21300;52.006;5.798;2023-04-03T02:26:32;5.30;99.90
35127;DHT22;21300;52.006;5.798;2023-04-03T02:28:57;5.30;99.90
35127;DHT22;21300;52.006;5.798;2023-04-03T02:31:23;5.30;99.90
35127;DHT22;21300;52.006;5.798;2023-04-03T02:33:49;5.20;99.90
35127;DHT22;21300;52.006;5.798;2023-04-03T02:36:15;5.20;99.90
35127;DHT22;21300;52.006;5.798;2023-04-03T02:38:41;5.20;99.90
35127;DHT22;21300;52.006;5.798;2023-04-03T02:41:09;5.20;99.90
35127;DHT22;21300;52.006;5.798;2023-04-03T02:43:36;5.20;99.90
35127;DHT22;21300;52.006;5.798;2023-04-03T02:46:02;5.20;99.90
35127;DHT22;21300;52.006;5.798;2023-04-03T02:48:27;5.20;99.90
35127;DHT22;21300;52.006;5.798;2023-04-03T02:50:53;5.20;99.90
35127;DHT22;21300;52.006;5.798;2023-04-03T02:53:19;5.20;99.90
35127;DHT22;21300;52.006;5.798;2023-04-03T02:55:45;5.20;99.90
35127;DHT22;21300;52.006;5.798;2023-04-03T02:58:11;5.20;99.90
35127;DHT22;21300;52.006;5.798;2023-04-03T03:00:36;5.20;99.90
35127;DHT22;21300;52.006;5.798;2023-04-03T03:03:02;5.10;99.90
35127;DHT22;21300;52.006;5.798;2023-04-03T03:05:28;5.10;99.90
35127;DHT22;21300;52.006;5.798;2023-04-03T03:07:54;5.10;99.90
35127;DHT22;21300;52.006;5.798;2023-04-03T03:10:20;5.10;99.90
35127;DHT22;21300;52.006;5.798;2023-04-03T03:12:46;5.10;99.90
35127;DHT22;21300;52.006;5.798;2023-04-03T03:15:12;5.10;99.90
35127;DHT22;21300;52.006;5.798;2023-04-03T03:17:38;5.10;99.90
35127;DHT22;21300;52.006;5.798;2023-04-03T03:20:05;5.10;99.90
35127;DHT22;21300;52.006;5.798;2023-04-03T03:22:31;5.10;99.90
35127;DHT22;21300;52.006;5.798;2023-04-03T03:24:57;5.00;99.90
35127;DHT22;21300;52.006;5.798;2023-04-03T03:27:22;5.00;99.90
35127;DHT22;21300;52.006;5.798;2023-04-03T03:29:49;5.00;99.90
35127;DHT22;21300;52.006;5.798;2023-04-03T03:32:15;5.00;99.90
35127;DHT22;21300;52.006;5.798;2023-04-03T03:34:40;5.00;99.90
35127;DHT22;21300;52.006;5.798;2023-04-03T03:37:06;5.00;99.90
35127;DHT22;21300;52.006;5.798;2023-04-03T03:39:31;5.00;99.90
35127;DHT22;21300;52.006;5.798;2023-04-03T03:41:57;5.00;99.90
35127;DHT22;21300;52.006;5.798;2023-04-03T03:44:22;5.00;99.90
35127;DHT22;21300;52.006;5.798;2023-04-03T03:46:48;4.90;99.90
35127;DHT22;21300;52.006;5.798;2023-04-03T03:49:14;4.90;99.90
35127;DHT22;21300;52.006;5.798;2023-04-03T03:51:39;4.90;99.90
35127;DHT22;21300;52.006;5.798;2023-04-03T03:54:06;4.90;99.90
35127;DHT22;21300;52.006;5.798;2023-04-03T03:56:32;4.90;99.90
35127;DHT22;21300;52.006;5.798;2023-04-03T03:58:58;4.90;99.90
35127;DHT22;21300;52.006;5.798;2023-04-03T04:01:24;4.80;99.90
35127;DHT22;21300;52.006;5.798;2023-04-03T04:03:50;4.90;99.90
35127;DHT22;21300;52.006;5.798;2023-04-03T04:06:16;4.90;99.90
35127;DHT22;21300;52.006;5.798;2023-04-03T04:08:42;4.90;99.90
35127;DHT22;21300;52.006;5.798;2023-04-03T04:11:08;4.80;99.90
35127;DHT22;21300;52.006;5.798;2023-04-03T04:13:34;4.80;99.90
35127;DHT22;21300;52.006;5.798;2023-04-03T04:16:00;4.80;99.90
35127;DHT22;21300;52.006;5.798;2023-04-03T04:18:26;4.80;99.90
35127;DHT22;21300;52.006;5.798;2023-04-03T04:20:51;4.80;99.90
35127;DHT22;21300;52.006;5.798;2023-04-03T04:23:18;4.70;99.90
35127;DHT22;21300;52.006;5.798;2023-04-03T04:25:47;4.80;99.90
35127;DHT22;21300;52.006;5.798;2023-04-03T04:28:13;4.80;99.90
35127;DHT22;21300;52.006;5.798;2023-04-03T04:30:39;4.70;99.90
35127;DHT22;21300;52.006;5.798;2023-04-03T04:33:05;4.70;99.90
35127;DHT22;21300;52.006;5.798;2023-04-03T04:35:32;4.70;99.90
35127;DHT22;21300;52.006;5.798;2023-04-03T04:37:57;4.70;99.90
35127;DHT22;21300;52.006;5.798;2023-04-03T04:40:23;4.70;99.90
35127;DHT22;21300;52.006;5.798;2023-04-03T04:42:49;4.70;99.90
35127;DHT22;21300;52.006;5.798;2023-04-03T04:45:15;4.60;99.90
35127;DHT22;21300;52.006;5.798;2023-04-03T04:47:41;4.60;99.90
35127;DHT22;21300;52.006;5.798;2023-04-03T04:50:07;4.60;99.90
35127;DHT22;21300;52.006;5.798;2023-04-03T04:52:32;4.60;99.90
35127;DHT22;21300;52.006;5.798;2023-04-03T04:54:58;4.60;99.90
35127;DHT22;21300;52.006;5.798;2023-04-03T04:57:24;4.60;99.90
35127;DHT22;21300;52.006;5.798;2023-04-03T04:59:49;4.60;99.90
35127;DHT22;21300;52.006;5.798;2023-04-03T05:02:15;4.60;99.90
35127;DHT22;21300;52.006;5.798;2023-04-03T05:04:41;4.60;99.90
35127;DHT22;21300;52.006;5.798;2023-04-03T05:07:06;4.50;99.90
35127;DHT22;21300;52.006;5.798;2023-04-03T05:09:32;4.50;99.90
35127;DHT22;21300;52.006;5.798;2023-04-03T05:11:58;4.50;99.90
35127;DHT22;21300;52.006;5.798;2023-04-03T05:14:23;4.20;99.90
35127;DHT22;21300;52.006;5.798;2023-04-03T05:16:49;4.00;99.90
35127;DHT22;21300;52.006;5.798;2023-04-03T05:19:18;4.00;99.90
35127;DHT22;21300;52.006;5.798;2023-04-03T05:21:44;4.10;99.90
35127;DHT22;21300;52.006;5.798;2023-04-03T05:24:09;4.20;99.90
35127;DHT22;21300;52.006;5.798;2023-04-03T05:26:35;4.20;99.90
35127;DHT22;21300;52.006;5.798;2023-04-03T05:29:01;4.20;99.90
35127;DHT22;21300;52.006;5.798;2023-04-03T05:31:26;4.20;99.90
35127;DHT22;21300;52.006;5.798;2023-04-03T05:33:55;4.20;99.90
35127;DHT22;21300;52.006;5.798;2023-04-03T05:36:20;4.20;99.90
35127;DHT22;21300;52.006;5.798;2023-04-03T05:38:46;4.20;99.90
35127;DHT22;21300;52.006;5.798;2023-04-03T05:41:13;4.20;99.90
35127;DHT22;21300;52.006;5.798;2023-04-03T05:43:38;4.20;99.90
35127;DHT22;21300;52.006;5.798;2023-04-03T05:46:10;4.20;99.90
35127;DHT22;21300;52.006;5.798;2023-04-03T05:48:36;4.20;99.90
35127;DHT22;21300;52.006;5.798;2023-04-03T05:51:02;4.20;99.90
35127;DHT22;21300;52.006;5.798;2023-04-03T05:53:29;4.20;99.90
35127;DHT22;21300;52.006;5.798;2023-04-03T05:55:56;4.20;99.90
35127;DHT22;21300;52.006;5.798;2023-04-03T05:58:22;4.20;99.90
35127;DHT22;21300;52.006;5.798;2023-04-03T06:00:47;4.20;99.90
35127;DHT22;21300;52.006;5.798;2023-04-03T06:03:13;4.20;99.90
35127;DHT22;21300;52.006;5.798;2023-04-03T06:05:39;4.20;99.90
35127;DHT22;21300;52.006;5.798;2023-04-03T06:08:05;4.20;99.90
35127;DHT22;21300;52.006;5.798;2023-04-03T06:10:31;4.10;99.90
35127;DHT22;21300;52.006;5.798;2023-04-03T06:12:56;4.10;99.90
35127;DHT22;21300;52.006;5.798;2023-04-03T06:15:22;4.10;99.90
35127;DHT22;21300;52.006;5.798;2023-04-03T06:17:48;4.10;99.90
35127;DHT22;21300;52.006;5.798;2023-04-03T06:20:14;4.10;99.90
35127;DHT22;21300;52.006;5.798;2023-04-03T06:22:40;4.10;99.90
35127;DHT22;21300;52.006;5.798;2023-04-03T06:25:07;4.10;99.90
35127;DHT22;21300;52.006;5.798;2023-04-03T06:27:33;4.10;99.90
35127;DHT22;21300;52.006;5.798;2023-04-03T06:29:58;4.10;99.90
35127;DHT22;21300;52.006;5.798;2023-04-03T06:32:24;4.10;99.90
35127;DHT22;21300;52.006;5.798;2023-04-03T06:34:50;4.10;99.90
35127;DHT22;21300;52.006;5.798;2023-04-03T06:37:21;4.10;99.90
35127;DHT22;21300;52.006;5.798;2023-04-03T06:39:47;4.10;99.90
35127;DHT22;21300;52.006;5.798;2023-04-03T06:42:12;4.10;99.90
35127;DHT22;21300;52.006;5.798;2023-04-03T06:44:38;4.10;99.90
35127;DHT22;21300;52.006;5.798;2023-04-03T06:47:04;4.10;99.90
35127;DHT22;21300;52.006;5.798;2023-04-03T06:49:30;4.10;99.90
35127;DHT22;21300;52.006;5.798;2023-04-03T06:51:56;4.10;99.90
35127;DHT22;21300;52.006;5.798;2023-04-03T06:54:22;4.10;99.90
35127;DHT22;21300;52.006;5.798;2023-04-03T06:56:47;4.10;99.90
35127;DHT22;21300;52.006;5.798;2023-04-03T06:59:14;4.10;99.90
35127;DHT22;21300;52.006;5.798;2023-04-03T07:01:40;4.10;99.90
35127;DHT22;21300;52.006;5.798;2023-04-03T07:04:07;4.10;99.90
35127;DHT22;21300;52.006;5.798;2023-04-03T07:06:34;4.10;99.90
35127;DHT22;21300;52.006;5.798;2023-04-03T07:09:01;4.10;99.90
35127;DHT22;21300;52.006;5.798;2023-04-03T07:11:26;4.10;99.90
35127;DHT22;21300;52.006;5.798;2023-04-03T07:13:52;4.20;99.90
35127;DHT22;21300;52.006;5.798;2023-04-03T07:16:18;4.10;99.90
35127;DHT22;21300;52.006;5.798;2023-04-03T07:18:45;4.10;99.90
35127;DHT22;21300;52.006;5.798;2023-04-03T07:21:11;4.20;99.90
35127;DHT22;21300;52.006;5.798;2023-04-03T07:23:37;4.20;99.90
35127;DHT22;21300;52.006;5.798;2023-04-03T07:26:02;4.10;99.90
35127;DHT22;21300;52.006;5.798;2023-04-03T07:28:28;4.10;99.90
35127;DHT22;21300;52.006;5.798;2023-04-03T07:31:03;4.20;99.90
35127;DHT22;21300;52.006;5.798;2023-04-03T07:33:29;4.20;99.90
35127;DHT22;21300;52.006;5.798;2023-04-03T07:35:55;4.20;99.90
35127;DHT22;21300;52.006;5.798;2023-04-03T07:38:20;4.20;99.90
35127;DHT22;21300;52.006;5.798;2023-04-03T07:40:47;4.20;99.90
35127;DHT22;21300;52.006;5.798;2023-04-03T07:43:14;4.20;99.90
35127;DHT22;21300;52.006;5.798;2023-04-03T07:45:41;4.20;99.90
35127;DHT22;21300;52.006;5.798;2023-04-03T07:48:07;4.20;99.90
35127;DHT22;21300;52.006;5.798;2023-04-03T07:50:32;4.30;99.90
35127;DHT22;21300;52.006;5.798;2023-04-03T07:52:58;4.30;99.90
35127;DHT22;21300;52.006;5.798;2023-04-03T07:55:25;4.30;99.90
35127;DHT22;21300;52.006;5.798;2023-04-03T07:57:50;4.30;99.90
35127;DHT22;21300;52.006;5.798;2023-04-03T08:00:17;4.30;99.90
35127;DHT22;21300;52.006;5.798;2023-04-03T08:02:43;4.30;99.90
35127;DHT22;21300;52.006;5.798;2023-04-03T08:05:10;4.30;99.90
35127;DHT22;21300;52.006;5.798;2023-04-03T08:07:37;4.40;99.90
35127;DHT22;21300;52.006;5.798;2023-04-03T08:10:03;4.40;99.60
35127;DHT22;21300;52.006;5.798;2023-04-03T08:12:29;4.40;99.50
35127;DHT22;21300;52.006;5.798;2023-04-03T08:14:55;4.40;99.90
35127;DHT22;21300;52.006;5.798;2023-04-03T08:17:21;4.40;99.90
35127;DHT22;21300;52.006;5.798;2023-04-03T08:19:47;4.40;99.40
35127;DHT22;21300;52.006;5.798;2023-04-03T08:22:12;4.50;99.90
35127;DHT22;21300;52.006;5.798;2023-04-03T08:24:38;4.50;99.80
35127;DHT22;21300;52.006;5.798;2023-04-03T08:27:03;4.50;98.80
35127;DHT22;21300;52.006;5.798;2023-04-03T08:29:29;4.50;99.30
35127;DHT22;21300;52.006;5.798;2023-04-03T08:31:55;4.60;99.10
35127;DHT22;21300;52.006;5.798;2023-04-03T08:34:21;4.60;98.70
35127;DHT22;21300;52.006;5.798;2023-04-03T08:36:47;4.60;98.80
35127;DHT22;21300;52.006;5.798;2023-04-03T08:39:13;4.60;98.70
35127;DHT22;21300;52.006;5.798;2023-04-03T08:41:40;4.70;99.70
35127;DHT22;21300;52.006;5.798;2023-04-03T08:44:27;4.70;99.30
35127;DHT22;21300;52.006;5.798;2023-04-03T08:49:57;4.70;98.60
35127;DHT22;21300;52.006;5.798;2023-04-03T08:52:45;4.80;98.00
35127;DHT22;21300;52.006;5.798;2023-04-03T08:55:25;4.80;98.40
35127;DHT22;21300;52.006;5.798;2023-04-03T08:58:07;4.80;97.30
35127;DHT22;21300;52.006;5.798;2023-04-03T09:01:02;4.90;97.80
35127;DHT22;21300;52.006;5.798;2023-04-03T09:03:31;4.90;97.80
35127;DHT22;21300;52.006;5.798;2023-04-03T09:06:08;4.90;98.10
35127;DHT22;21300;52.006;5.798;2023-04-03T09:11:25;5.00;97.90
35127;DHT22;21300;52.006;5.798;2023-04-03T09:13:59;5.10;98.60
35127;DHT22;21300;52.006;5.798;2023-04-03T09:16:35;5.10;98.80
35127;DHT22;21300;52.006;5.798;2023-04-03T09:21:40;5.20;98.60
35127;DHT22;21300;52.006;5.798;2023-04-03T09:24:10;5.30;98.40
35127;DHT22;21300;52.006;5.798;2023-04-03T09:26:44;5.30;98.80
35127;DHT22;21300;52.006;5.798;2023-04-03T09:29:17;5.30;98.70
35127;DHT22;21300;52.006;5.798;2023-04-03T09:31:44;5.40;98.90
35127;DHT22;21300;52.006;5.798;2023-04-03T09:36:45;5.50;99.60
35127;DHT22;21300;52.006;5.798;2023-04-03T09:39:14;5.50;99.80
35127;DHT22;21300;52.006;5.798;2023-04-03T09:41:40;5.60;99.40
35127;DHT22;21300;52.006;5.798;2023-04-03T09:44:21;5.60;98.20
35127;DHT22;21300;52.006;5.798;2023-04-03T09:46:47;5.60;99.90
35127;DHT22;21300;52.006;5.798;2023-04-03T09:49:13;5.70;99.90
35127;DHT22;21300;52.006;5.798;2023-04-03T09:51:38;5.80;98.40
35127;DHT22;21300;52.006;5.798;2023-04-03T09:54:32;5.80;96.70
35127;DHT22;21300;52.006;5.798;2023-04-03T09:57:06;5.80;98.70
35127;DHT22;21300;52.006;5.798;2023-04-03T09:59:32;5.90;99.00
35127;DHT22;21300;52.006;5.798;2023-04-03T10:02:00;5.90;97.90
35127;DHT22;21300;52.006;5.798;2023-04-03T10:04:38;6.00;99.90
35127;DHT22;21300;52.006;5.798;2023-04-03T10:07:34;6.00;98.90
35127;DHT22;21300;52.006;5.798;2023-04-03T10:12:40;6.10;98.60
35127;DHT22;21300;52.006;5.798;2023-04-03T10:15:16;6.10;99.00
35127;DHT22;21300;52.006;5.798;2023-04-03T10:18:10;6.20;99.40
35127;DHT22;21300;52.006;5.798;2023-04-03T10:20:49;6.20;99.40
35127;DHT22;21300;52.006;5.798;2023-04-03T10:29:04;6.40;98.80
35127;DHT22;21300;52.006;5.798;2023-04-03T10:34:37;6.50;99.90
35127;DHT22;21300;52.006;5.798;2023-04-03T10:39:59;6.50;98.60
35127;DHT22;21300;52.006;5.798;2023-04-03T10:42:39;6.60;98.90
35127;DHT22;21300;52.006;5.798;2023-04-03T10:45:40;6.60;98.80
35127;DHT22;21300;52.006;5.798;2023-04-03T10:48:23;6.70;99.00
35127;DHT22;21300;52.006;5.798;2023-04-03T10:56:19;6.90;99.90
35127;DHT22;21300;52.006;5.798;2023-04-03T10:58:56;6.90;99.90
35127;DHT22;21300;52.006;5.798;2023-04-03T11:01:31;7.00;99.90
35127;DHT22;21300;52.006;5.798;2023-04-03T11:03:59;7.00;99.90
35127;DHT22;21300;52.006;5.798;2023-04-03T11:06:38;7.10;99.50
35127;DHT22;21300;52.006;5.798;2023-04-03T11:11:42;7.10;98.70
35127;DHT22;21300;52.006;5.798;2023-04-03T11:14:18;7.20;99.90
35127;DHT22;21300;52.006;5.798;2023-04-03T11:16:50;7.20;99.90
35127;DHT22;21300;52.006;5.798;2023-04-03T11:19:22;7.30;99.90
35127;DHT22;21300;52.006;5.798;2023-04-03T11:21:56;7.30;99.90
35127;DHT22;21300;52.006;5.798;2023-04-03T11:24:25;7.30;99.90
35127;DHT22;21300;52.006;5.798;2023-04-03T11:26:54;7.40;99.90
35127;DHT22;21300;52.006;5.798;2023-04-03T11:29:28;7.40;99.90
35127;DHT22;21300;52.006;5.798;2023-04-03T11:34:49;7.50;97.90
35127;DHT22;21300;52.006;5.798;2023-04-03T11:37:33;7.60;97.70
35127;DHT22;21300;52.006;5.798;2023-04-03T11:40:05;7.60;98.50
35127;DHT22;21300;52.006;5.798;2023-04-03T11:42:37;7.60;97.50
35127;DHT22;21300;52.006;5.798;2023-04-03T11:47:49;7.70;99.10
35127;DHT22;21300;52.006;5.798;2023-04-03T11:55:59;7.80;98.00
35127;DHT22;21300;52.006;5.798;2023-04-03T12:16:29;8.10;99.90
35127;DHT22;21300;52.006;5.798;2023-04-03T12:19:02;8.20;99.90
35127;DHT22;21300;52.006;5.798;2023-04-03T12:37:39;8.30;94.90
35127;DHT22;21300;52.006;5.798;2023-04-03T12:40:25;8.30;93.50
35127;DHT22;21300;52.006;5.798;2023-04-03T12:43:08;8.40;96.10
35127;DHT22;21300;52.006;5.798;2023-04-03T12:48:27;8.40;97.20
35127;DHT22;21300;52.006;5.798;2023-04-03T12:50:53;8.40;99.10
35127;DHT22;21300;52.006;5.798;2023-04-03T12:53:22;8.50;98.10
35127;DHT22;21300;52.006;5.798;2023-04-03T12:55:57;8.50;98.60
35127;DHT22;21300;52.006;5.798;2023-04-03T12:58:25;8.50;96.90
35127;DHT22;21300;52.006;5.798;2023-04-03T13:01:03;8.60;97.90
35127;DHT22;21300;52.006;5.798;2023-04-03T13:03:34;8.60;97.10
35127;DHT22;21300;52.006;5.798;2023-04-03T13:06:02;8.60;97.40
35127;DHT22;21300;52.006;5.798;2023-04-03T13:08:29;8.60;98.10
35127;DHT22;21300;52.006;5.798;2023-04-03T13:11:06;8.60;98.20
35127;DHT22;21300;52.006;5.798;2023-04-03T13:13:33;8.60;97.50
35127;DHT22;21300;52.006;5.798;2023-04-03T13:15:58;8.60;98.90
35127;DHT22;21300;52.006;5.798;2023-04-03T13:18:32;8.60;99.10
35127;DHT22;21300;52.006;5.798;2023-04-03T13:23:27;8.60;97.00
35127;DHT22;21300;52.006;5.798;2023-04-03T13:25:53;8.60;97.90
35127;DHT22;21300;52.006;5.798;2023-04-03T13:28:24;8.70;97.40
35127;DHT22;21300;52.006;5.798;2023-04-03T13:33:27;8.60;96.00
35127;DHT22;21300;52.006;5.798;2023-04-03T13:38:31;8.70;99.00
35127;DHT22;21300;52.006;5.798;2023-04-03T13:41:04;8.70;96.80
35127;DHT22;21300;52.006;5.798;2023-04-03T13:43:36;8.70;96.60
35127;DHT22;21300;52.006;5.798;2023-04-03T13:46:23;8.60;86.70
35127;DHT22;21300;52.006;5.798;2023-04-03T13:48:52;8.50;93.90
35127;DHT22;21300;52.006;5.798;2023-04-03T13:51:22;8.50;96.80
35127;DHT22;21300;52.006;5.798;2023-04-03T13:53:52;8.50;96.90
35127;DHT22;21300;52.006;5.798;2023-04-03T14:01:25;8.70;95.90
35127;DHT22;21300;52.006;5.798;2023-04-03T14:04:00;8.60;97.10
35127;DHT22;21300;52.006;5.798;2023-04-03T14:06:26;8.70;96.80
35127;DHT22;21300;52.006;5.798;2023-04-03T14:08:53;8.70;94.50
35127;DHT22;21300;52.006;5.798;2023-04-03T14:11:22;8.70;94.70
35127;DHT22;21300;52.006;5.798;2023-04-03T14:13:49;8.70;96.70
35127;DHT22;21300;52.006;5.798;2023-04-03T14:16:21;8.70;96.60
35127;DHT22;21300;52.006;5.798;2023-04-03T14:18:49;8.70;97.70
35127;DHT22;21300;52.006;5.798;2023-04-03T14:21:17;8.70;97.20
35127;DHT22;21300;52.006;5.798;2023-04-03T14:23:44;8.70;95.60
35127;DHT22;21300;52.006;5.798;2023-04-03T14:26:15;8.70;97.40
35127;DHT22;21300;52.006;5.798;2023-04-03T14:28:42;8.70;95.40
35127;DHT22;21300;52.006;5.798;2023-04-03T14:31:10;8.70;96.30
35127;DHT22;21300;52.006;5.798;2023-04-03T14:33:37;8.70;97.30
35127;DHT22;21300;52.006;5.798;2023-04-03T14:36:12;8.70;96.20
35127;DHT22;21300;52.006;5.798;2023-04-03T14:38:39;8.70;94.90
35127;DHT22;21300;52.006;5.798;2023-04-03T14:41:05;8.70;97.30
35127;DHT22;21300;52.006;5.798;2023-04-03T14:43:30;8.70;98.00
35127;DHT22;21300;52.006;5.798;2023-04-03T14:45:56;8.60;93.80
35127;DHT22;21300;52.006;5.798;2023-04-03T14:48:24;8.60;94.50
35127;DHT22;21300;52.006;5.798;2023-04-03T14:50:52;8.60;94.90
35127;DHT22;21300;52.006;5.798;2023-04-03T14:53:19;8.70;95.50
35127;DHT22;21300;52.006;5.798;2023-04-03T14:55:48;8.70;94.90
35127;DHT22;21300;52.006;5.798;2023-04-03T14:58:16;8.70;95.80
35127;DHT22;21300;52.006;5.798;2023-04-03T15:00:43;8.70;95.70
35127;DHT22;21300;52.006;5.798;2023-04-03T15:03:18;8.70;95.50
35127;DHT22;21300;52.006;5.798;2023-04-03T15:05:46;8.70;95.60
35127;DHT22;21300;52.006;5.798;2023-04-03T15:08:28;8.70;95.30
35127;DHT22;21300;52.006;5.798;2023-04-03T15:10:57;8.70;93.10
35127;DHT22;21300;52.006;5.798;2023-04-03T15:13:24;8.70;93.40
35127;DHT22;21300;52.006;5.798;2023-04-03T15:15:50;8.70;96.00
35127;DHT22;21300;52.006;5.798;2023-04-03T15:18:20;8.70;95.80
35127;DHT22;21300;52.006;5.798;2023-04-03T15:20:46;8.70;96.20
35127;DHT22;21300;52.006;5.798;2023-04-03T15:23:13;8.70;95.00
35127;DHT22;21300;52.006;5.798;2023-04-03T15:25:42;8.70;94.70
35127;DHT22;21300;52.006;5.798;2023-04-03T15:28:13;8.70;95.00
35127;DHT22;21300;52.006;5.798;2023-04-03T15:30:40;8.70;95.10
35127;DHT22;21300;52.006;5.798;2023-04-03T15:33:06;8.70;95.60
35127;DHT22;21300;52.006;5.798;2023-04-03T15:35:32;8.70;94.60
35127;DHT22;21300;52.006;5.798;2023-04-03T15:37:57;8.70;94.60
35127;DHT22;21300;52.006;5.798;2023-04-03T15:40:23;8.70;95.20
35127;DHT22;21300;52.006;5.798;2023-04-03T15:42:48;8.70;96.10
35127;DHT22;21300;52.006;5.798;2023-04-03T15:45:14;8.70;96.40
35127;DHT22;21300;52.006;5.798;2023-04-03T15:47:40;8.70;96.30
35127;DHT22;21300;52.006;5.798;2023-04-03T15:50:06;8.70;95.90
35127;DHT22;21300;52.006;5.798;2023-04-03T15:52:33;8.70;96.10
35127;DHT22;21300;52.006;5.798;2023-04-03T15:54:58;8.70;96.20
35127;DHT22;21300;52.006;5.798;2023-04-03T15:57:24;8.70;97.40
35127;DHT22;21300;52.006;5.798;2023-04-03T15:59:52;8.70;97.00
35127;DHT22;21300;52.006;5.798;2023-04-03T16:02:17;8.70;95.80
35127;DHT22;21300;52.006;5.798;2023-04-03T16:04:43;8.70;96.30
35127;DHT22;21300;52.006;5.798;2023-04-03T16:07:09;8.70;95.50
35127;DHT22;21300;52.006;5.798;2023-04-03T16:09:35;8.70;96.10
35127;DHT22;21300;52.006;5.798;2023-04-03T16:12:01;8.60;95.40
35127;DHT22;21300;52.006;5.798;2023-04-03T16:14:27;8.60;95.10
35127;DHT22;21300;52.006;5.798;2023-04-03T16:16:55;8.60;95.60
35127;DHT22;21300;52.006;5.798;2023-04-03T16:19:21;8.60;95.60
35127;DHT22;21300;52.006;5.798;2023-04-03T16:21:47;8.60;96.40
35127;DHT22;21300;52.006;5.798;2023-04-03T16:24:13;8.60;96.00
35127;DHT22;21300;52.006;5.798;2023-04-03T16:26:38;8.60;96.10
35127;DHT22;21300;52.006;5.798;2023-04-03T16:29:04;8.60;95.80
35127;DHT22;21300;52.006;5.798;2023-04-03T16:31:32;8.60;95.30
35127;DHT22;21300;52.006;5.798;2023-04-03T16:33:58;8.60;96.80
35127;DHT22;21300;52.006;5.798;2023-04-03T16:36:25;8.60;97.30
35127;DHT22;21300;52.006;5.798;2023-04-03T16:38:52;8.60;95.10
35127;DHT22;21300;52.006;5.798;2023-04-03T16:41:17;8.60;94.40
35127;DHT22;21300;52.006;5.798;2023-04-03T16:43:43;8.60;95.50
35127;DHT22;21300;52.006;5.798;2023-04-03T16:46:09;8.60;96.50
35127;DHT22;21300;52.006;5.798;2023-04-03T16:48:34;8.50;96.60
35127;DHT22;21300;52.006;5.798;2023-04-03T16:51:00;8.50;95.30
35127;DHT22;21300;52.006;5.798;2023-04-03T16:53:27;8.50;94.10
35127;DHT22;21300;52.006;5.798;2023-04-03T16:55:53;8.50;96.20
35127;DHT22;21300;52.006;5.798;2023-04-03T16:58:19;8.50;95.10
35127;DHT22;21300;52.006;5.798;2023-04-03T17:00:45;8.50;95.20
35127;DHT22;21300;52.006;5.798;2023-04-03T17:03:12;8.50;96.20
35127;DHT22;21300;52.006;5.798;2023-04-03T17:05:38;8.50;95.40
35127;DHT22;21300;52.006;5.798;2023-04-03T17:08:03;8.50;95.10
35127;DHT22;21300;52.006;5.798;2023-04-03T17:10:29;8.50;96.50
35127;DHT22;21300;52.006;5.798;2023-04-03T17:12:55;8.40;95.90
35127;DHT22;21300;52.006;5.798;2023-04-03T17:15:21;8.40;95.30
35127;DHT22;21300;52.006;5.798;2023-04-03T17:17:47;8.40;96.50
35127;DHT22;21300;52.006;5.798;2023-04-03T17:20:14;8.40;95.80
35127;DHT22;21300;52.006;5.798;2023-04-03T17:22:40;8.40;95.00
35127;DHT22;21300;52.006;5.798;2023-04-03T17:25:06;8.40;95.10
35127;DHT22;21300;52.006;5.798;2023-04-03T17:27:32;8.40;94.50
35127;DHT22;21300;52.006;5.798;2023-04-03T17:29:58;8.40;95.70
35127;DHT22;21300;52.006;5.798;2023-04-03T17:32:24;8.30;96.70